sensor_id;sensor_type;location;lat;lon;timestamp;pressure;altitude;pressure_sealevel;temperature;humidity
70971;BME280;58632;51.718;19.446;2023-04-01T00:00:24;97670.58;;;9.70;100.00
70971;BME280;58632;51.718;19.446;2023-04-01T00:03:09;97668.84;;;9.68;100.00
70971;BME280;58632;51.718;19.446;2023-04-01T00:05:35;97667.66;;;9.69;100.00
70971;BME280;58632;51.718;19.446;2023-04-01T00:08:00;97661.80;;;9.66;100.00
70971;BME280;58632;51.718;19.446;2023-04-01T00:10:26;97662.38;;;9.69;100.00
70971;BME280;58632;51.718;19.446;2023-04-01T00:12:51;97658.77;;;9.74;100.00
70971;BME280;58632;51.718;19.446;2023-04-01T00:15:17;97660.86;;;9.78;100.00
70971;BME280;58632;51.718;19.446;2023-04-01T00:17:42;97662.74;;;9.80;100.00
70971;BME280;58632;51.718;19.446;2023-04-01T00:20:08;97661.02;;;9.80;100.00
70971;BME280;58632;51.718;19.446;2023-04-01T00:22:34;97662.98;;;9.79;100.00
70971;BME280;58632;51.718;19.446;2023-04-01T00:25:00;97667.18;;;9.79;100.00
70971;BME280;58632;51.718;19.446;2023-04-01T00:27:25;97669.23;;;9.75;100.00
70971;BME280;58632;51.718;19.446;2023-04-01T00:29:51;97672.12;;;9.74;100.00
70971;BME280;58632;51.718;19.446;2023-04-01T00:32:17;97675.76;;;9.71;100.00
70971;BME280;58632;51.718;19.446;2023-04-01T00:34:42;97672.84;;;9.70;100.00
70971;BME280;58632;51.718;19.446;2023-04-01T00:37:09;97674.38;;;9.69;100.00
70971;BME280;58632;51.718;19.446;2023-04-01T00:39:35;97668.52;;;9.67;100.00
70971;BME280;58632;51.718;19.446;2023-04-01T00:42:01;97678.62;;;9.65;100.00
70971;BME280;58632;51.718;19.446;2023-04-01T00:44:29;97674.59;;;9.62;100.00
70971;BME280;58632;51.718;19.446;2023-04-01T00:46:55;97671.74;;;9.59;100.00
70971;BME280;58632;51.718;19.446;2023-04-01T00:49:22;97668.31;;;9.59;100.00
70971;BME280;58632;51.718;19.446;2023-04-01T00:51:50;97665.92;;;9.61;100.00
70971;BME280;58632;51.718;19.446;2023-04-01T00:54:17;97665.95;;;9.63;100.00
70971;BME280;58632;51.718;19.446;2023-04-01T00:57:07;97664.23;;;9.63;100.00
70971;BME280;58632;51.718;19.446;2023-04-01T00:59:31;97656.98;;;9.64;100.00
70971;BME280;58632;51.718;19.446;2023-04-01T01:01:57;97654.34;;;9.64;100.00
70971;BME280;58632;51.718;19.446;2023-04-01T01:06:51;97646.13;;;9.58;100.00
70971;BME280;58632;51.718;19.446;2023-04-01T01:09:25;97642.48;;;9.55;100.00
70971;BME280;58632;51.718;19.446;2023-04-01T01:11:57;97636.08;;;9.49;100.00
70971;BME280;58632;51.718;19.446;2023-04-01T01:14:30;97636.44;;;9.43;100.00
70971;BME280;58632;51.718;19.446;2023-04-01T01:17:23;97637.40;;;9.39;100.00
70971;BME280;58632;51.718;19.446;2023-04-01T01:27:31;97649.02;;;9.54;100.00
70971;BME280;58632;51.718;19.446;2023-04-01T01:37:43;97645.02;;;9.38;100.00
70971;BME280;58632;51.718;19.446;2023-04-01T01:40:10;97648.05;;;9.22;100.00
70971;BME280;58632;51.718;19.446;2023-04-01T01:42:38;97648.72;;;9.16;100.00
70971;BME280;58632;51.718;19.446;2023-04-01T01:45:05;97651.25;;;9.14;100.00
70971;BME280;58632;51.718;19.446;2023-04-01T01:47:31;97652.57;;;9.12;100.00
70971;BME280;58632;51.718;19.446;2023-04-01T01:49:58;97649.80;;;9.11;100.00
70971;BME280;58632;51.718;19.446;2023-04-01T01:52:26;97652.13;;;9.10;100.00
70971;BME280;58632;51.718;19.446;2023-04-01T01:54:54;97651.21;;;9.10;100.00
70971;BME280;58632;51.718;19.446;2023-04-01T01:57:34;97649.75;;;9.12;100.00
70971;BME280;58632;51.718;19.446;2023-04-01T02:00:04;97645.38;;;9.12;100.00
70971;BME280;58632;51.718;19.446;2023-04-01T02:02:39;97645.52;;;9.06;100.00
70971;BME280;58632;51.718;19.446;2023-04-01T02:05:05;97649.54;;;9.04;100.00
70971;BME280;58632;51.718;19.446;2023-04-01T02:07:32;97646.27;;;9.00;100.00
70971;BME280;58632;51.718;19.446;2023-04-01T02:09:59;97647.61;;;9.01;100.00
70971;BME280;58632;51.718;19.446;2023-04-01T02:12:25;97643.56;;;9.02;100.00
70971;BME280;58632;51.718;19.446;2023-04-01T02:14:59;97647.81;;;9.04;100.00
70971;BME280;58632;51.718;19.446;2023-04-01T02:17:30;97644.89;;;9.07;100.00
70971;BME280;58632;51.718;19.446;2023-04-01T02:19:57;97643.85;;;9.04;100.00
70971;BME280;58632;51.718;19.446;2023-04-01T02:22:26;97644.45;;;9.08;100.00
70971;BME280;58632;51.718;19.446;2023-04-01T02:24:54;97647.08;;;9.10;100.00
70971;BME280;58632;51.718;19.446;2023-04-01T02:27:20;97650.04;;;9.10;100.00
70971;BME280;58632;51.718;19.446;2023-04-01T02:29:46;97649.73;;;9.11;100.00
70971;BME280;58632;51.718;19.446;2023-04-01T02:32:12;97651.59;;;9.11;100.00
70971;BME280;58632;51.718;19.446;2023-04-01T02:34:38;97654.20;;;9.13;100.00
70971;BME280;58632;51.718;19.446;2023-04-01T02:37:03;97658.42;;;9.13;100.00
70971;BME280;58632;51.718;19.446;2023-04-01T02:39:29;97652.41;;;9.08;100.00
70971;BME280;58632;51.718;19.446;2023-04-01T02:41:55;97651.98;;;9.01;100.00
70971;BME280;58632;51.718;19.446;2023-04-01T02:44:20;97649.94;;;9.00;100.00
70971;BME280;58632;51.718;19.446;2023-04-01T02:46:46;97650.00;;;9.00;100.00
70971;BME280;58632;51.718;19.446;2023-04-01T02:49:11;97656.73;;;9.01;100.00
70971;BME280;58632;51.718;19.446;2023-04-01T02:51:37;97657.92;;;9.02;100.00
70971;BME280;58632;51.718;19.446;2023-04-01T02:54:03;97660.52;;;8.99;100.00
70971;BME280;58632;51.718;19.446;2023-04-01T02:56:28;97664.37;;;8.96;100.00
70971;BME280;58632;51.718;19.446;2023-04-01T02:58:54;97662.05;;;8.93;100.00
70971;BME280;58632;51.718;19.446;2023-04-01T03:01:19;97666.07;;;8.91;100.00
70971;BME280;58632;51.718;19.446;2023-04-01T03:03:45;97665.66;;;8.86;100.00
70971;BME280;58632;51.718;19.446;2023-04-01T03:06:12;97663.02;;;8.82;100.00
70971;BME280;58632;51.718;19.446;2023-04-01T03:08:39;97662.89;;;8.79;100.00
70971;BME280;58632;51.718;19.446;2023-04-01T03:11:05;97663.42;;;8.79;100.00
70971;BME280;58632;51.718;19.446;2023-04-01T03:13:31;97663.27;;;8.75;100.00
70971;BME280;58632;51.718;19.446;2023-04-01T03:15:56;97663.52;;;8.72;100.00
70971;BME280;58632;51.718;19.446;2023-04-01T03:18:22;97666.61;;;8.73;100.00
70971;BME280;58632;51.718;19.446;2023-04-01T03:20:47;97662.42;;;8.75;100.00
70971;BME280;58632;51.718;19.446;2023-04-01T03:23:13;97660.21;;;8.73;100.00
70971;BME280;58632;51.718;19.446;2023-04-01T03:25:38;97663.46;;;8.67;100.00
70971;BME280;58632;51.718;19.446;2023-04-01T03:28:04;97667.91;;;8.65;100.00
70971;BME280;58632;51.718;19.446;2023-04-01T03:30:29;97668.05;;;8.60;100.00
70971;BME280;58632;51.718;19.446;2023-04-01T03:32:57;97663.76;;;8.55;100.00
70971;BME280;58632;51.718;19.446;2023-04-01T03:35:25;97671.13;;;8.49;100.00
70971;BME280;58632;51.718;19.446;2023-04-01T03:37:51;97670.78;;;8.43;100.00
70971;BME280;58632;51.718;19.446;2023-04-01T03:40:17;97672.15;;;8.39;100.00
70971;BME280;58632;51.718;19.446;2023-04-01T03:42:43;97674.56;;;8.35;100.00
70971;BME280;58632;51.718;19.446;2023-04-01T03:45:09;97673.83;;;8.34;100.00
70971;BME280;58632;51.718;19.446;2023-04-01T03:47:34;97673.15;;;8.34;100.00
70971;BME280;58632;51.718;19.446;2023-04-01T03:50:00;97674.16;;;8.35;100.00
70971;BME280;58632;51.718;19.446;2023-04-01T03:52:25;97680.78;;;8.31;100.00
70971;BME280;58632;51.718;19.446;2023-04-01T03:54:51;97682.36;;;8.32;100.00
70971;BME280;58632;51.718;19.446;2023-04-01T03:57:16;97684.59;;;8.31;100.00
70971;BME280;58632;51.718;19.446;2023-04-01T03:59:42;97685.67;;;8.30;100.00
70971;BME280;58632;51.718;19.446;2023-04-01T04:02:08;97687.67;;;8.33;100.00
70971;BME280;58632;51.718;19.446;2023-04-01T04:04:33;97693.46;;;8.37;100.00
70971;BME280;58632;51.718;19.446;2023-04-01T04:06:59;97696.27;;;8.38;100.00
70971;BME280;58632;51.718;19.446;2023-04-01T04:09:24;97697.88;;;8.36;100.00
70971;BME280;58632;51.718;19.446;2023-04-01T04:11:50;97697.94;;;8.32;100.00
70971;BME280;58632;51.718;19.446;2023-04-01T04:14:16;97697.02;;;8.29;100.00
70971;BME280;58632;51.718;19.446;2023-04-01T04:16:42;97695.48;;;8.26;100.00
70971;BME280;58632;51.718;19.446;2023-04-01T04:19:07;97700.88;;;8.23;100.00
70971;BME280;58632;51.718;19.446;2023-04-01T04:21:33;97697.98;;;8.19;100.00
70971;BME280;58632;51.718;19.446;2023-04-01T04:23:59;97698.80;;;8.17;100.00
70971;BME280;58632;51.718;19.446;2023-04-01T04:26:25;97704.98;;;8.19;100.00
70971;BME280;58632;51.718;19.446;2023-04-01T04:28:51;97707.18;;;8.19;100.00
70971;BME280;58632;51.718;19.446;2023-04-01T04:31:20;97704.39;;;8.20;100.00
70971;BME280;58632;51.718;19.446;2023-04-01T04:33:46;97708.21;;;8.20;100.00
70971;BME280;58632;51.718;19.446;2023-04-01T04:36:12;97705.13;;;8.22;100.00
70971;BME280;58632;51.718;19.446;2023-04-01T04:38:38;97701.70;;;8.26;100.00
70971;BME280;58632;51.718;19.446;2023-04-01T04:41:07;97702.99;;;8.27;100.00
70971;BME280;58632;51.718;19.446;2023-04-01T04:43:35;97702.79;;;8.25;100.00
70971;BME280;58632;51.718;19.446;2023-04-01T04:46:04;97701.53;;;8.21;100.00
70971;BME280;58632;51.718;19.446;2023-04-01T04:48:30;97704.35;;;8.22;100.00
70971;BME280;58632;51.718;19.446;2023-04-01T04:50:55;97701.61;;;8.25;100.00
70971;BME280;58632;51.718;19.446;2023-04-01T04:53:21;97699.90;;;8.29;100.00
70971;BME280;58632;51.718;19.446;2023-04-01T04:55:47;97699.67;;;8.29;100.00
70971;BME280;58632;51.718;19.446;2023-04-01T04:58:13;97702.29;;;8.31;100.00
70971;BME280;58632;51.718;19.446;2023-04-01T05:00:39;97703.73;;;8.33;100.00
70971;BME280;58632;51.718;19.446;2023-04-01T05:03:04;97698.30;;;8.37;100.00
70971;BME280;58632;51.718;19.446;2023-04-01T05:05:30;97694.87;;;8.44;100.00
70971;BME280;58632;51.718;19.446;2023-04-01T05:07:56;97698.20;;;8.51;100.00
70971;BME280;58632;51.718;19.446;2023-04-01T05:10:22;97698.91;;;8.59;100.00
70971;BME280;58632;51.718;19.446;2023-04-01T05:12:48;97700.02;;;8.67;100.00
70971;BME280;58632;51.718;19.446;2023-04-01T05:15:13;97704.38;;;8.75;100.00
70971;BME280;58632;51.718;19.446;2023-04-01T05:17:40;97699.35;;;8.77;100.00
70971;BME280;58632;51.718;19.446;2023-04-01T05:20:06;97701.73;;;8.87;100.00
70971;BME280;58632;51.718;19.446;2023-04-01T05:22:31;97700.66;;;8.98;100.00
70971;BME280;58632;51.718;19.446;2023-04-01T05:24:57;97704.73;;;9.07;100.00
70971;BME280;58632;51.718;19.446;2023-04-01T05:27:22;97699.84;;;9.21;100.00
70971;BME280;58632;51.718;19.446;2023-04-01T05:29:48;97695.88;;;9.40;100.00
70971;BME280;58632;51.718;19.446;2023-04-01T05:32:13;97700.95;;;9.61;100.00
70971;BME280;58632;51.718;19.446;2023-04-01T05:34:40;97701.21;;;9.77;100.00
70971;BME280;58632;51.718;19.446;2023-04-01T05:37:05;97699.81;;;9.93;100.00
70971;BME280;58632;51.718;19.446;2023-04-01T05:39:35;97699.08;;;10.01;100.00
70971;BME280;58632;51.718;19.446;2023-04-01T05:42:02;97697.63;;;10.04;100.00
70971;BME280;58632;51.718;19.446;2023-04-01T05:44:28;97699.17;;;9.98;100.00
70971;BME280;58632;51.718;19.446;2023-04-01T05:46:53;97701.47;;;9.93;100.00
70971;BME280;58632;51.718;19.446;2023-04-01T05:49:19;97700.27;;;9.93;100.00
70971;BME280;58632;51.718;19.446;2023-04-01T05:51:45;97700.09;;;9.96;100.00
70971;BME280;58632;51.718;19.446;2023-04-01T05:54:10;97699.84;;;10.00;100.00
70971;BME280;58632;51.718;19.446;2023-04-01T05:56:36;97699.57;;;10.09;100.00
70971;BME280;58632;51.718;19.446;2023-04-01T05:59:01;97695.98;;;10.15;100.00
70971;BME280;58632;51.718;19.446;2023-04-01T06:01:27;97696.60;;;10.20;100.00
70971;BME280;58632;51.718;19.446;2023-04-01T06:03:52;97697.44;;;10.29;100.00
70971;BME280;58632;51.718;19.446;2023-04-01T06:06:28;97696.91;;;10.35;100.00
70971;BME280;58632;51.718;19.446;2023-04-01T06:08:54;97700.50;;;10.47;100.00
70971;BME280;58632;51.718;19.446;2023-04-01T06:21:31;97703.73;;;10.96;100.00
70971;BME280;58632;51.718;19.446;2023-04-01T06:24:42;97705.37;;;11.04;100.00
70971;BME280;58632;51.718;19.446;2023-04-01T06:26:58;97711.27;;;11.06;100.00
70971;BME280;58632;51.718;19.446;2023-04-01T06:29:49;97710.55;;;11.12;100.00
70971;BME280;58632;51.718;19.446;2023-04-01T06:45:14;97712.16;;;11.35;100.00
70971;BME280;58632;51.718;19.446;2023-04-01T06:50:40;97712.01;;;11.61;100.00
70971;BME280;58632;51.718;19.446;2023-04-01T06:53:15;97713.92;;;11.64;100.00
70971;BME280;58632;51.718;19.446;2023-04-01T06:55:47;97713.23;;;11.66;100.00
70971;BME280;58632;51.718;19.446;2023-04-01T06:58:19;97721.29;;;11.66;100.00
70971;BME280;58632;51.718;19.446;2023-04-01T07:00:48;97720.44;;;11.67;100.00
70971;BME280;58632;51.718;19.446;2023-04-01T07:03:23;97721.35;;;11.81;100.00
70971;BME280;58632;51.718;19.446;2023-04-01T07:05:51;97724.06;;;11.98;100.00
70971;BME280;58632;51.718;19.446;2023-04-01T07:08:23;97722.92;;;12.04;100.00
70971;BME280;58632;51.718;19.446;2023-04-01T07:10:53;97722.46;;;12.03;100.00
70971;BME280;58632;51.718;19.446;2023-04-01T07:13:42;97724.33;;;12.01;100.00
70971;BME280;58632;51.718;19.446;2023-04-01T07:16:20;97722.88;;;12.07;100.00
70971;BME280;58632;51.718;19.446;2023-04-01T07:18:50;97724.71;;;12.10;100.00
70971;BME280;58632;51.718;19.446;2023-04-01T07:21:29;97721.98;;;12.14;100.00
70971;BME280;58632;51.718;19.446;2023-04-01T07:23:57;97722.86;;;12.16;100.00
70971;BME280;58632;51.718;19.446;2023-04-01T07:26:25;97720.17;;;12.26;100.00
70971;BME280;58632;51.718;19.446;2023-04-01T07:28:52;97721.73;;;12.37;100.00
70971;BME280;58632;51.718;19.446;2023-04-01T07:36:39;97725.25;;;12.37;100.00
70971;BME280;58632;51.718;19.446;2023-04-01T07:44:13;97726.77;;;12.27;100.00
70971;BME280;58632;51.718;19.446;2023-04-01T07:49:17;97734.58;;;12.22;100.00
70971;BME280;58632;51.718;19.446;2023-04-01T07:54:24;97735.21;;;12.23;100.00
70971;BME280;58632;51.718;19.446;2023-04-01T07:56:53;97733.15;;;12.21;100.00
70971;BME280;58632;51.718;19.446;2023-04-01T07:59:29;97733.80;;;12.21;100.00
70971;BME280;58632;51.718;19.446;2023-04-01T08:07:07;97732.57;;;12.75;100.00
70971;BME280;58632;51.718;19.446;2023-04-01T08:10:22;97734.00;;;13.01;100.00
70971;BME280;58632;51.718;19.446;2023-04-01T08:12:26;97733.42;;;13.22;100.00
70971;BME280;58632;51.718;19.446;2023-04-01T08:19:55;97729.50;;;13.59;100.00
70971;BME280;58632;51.718;19.446;2023-04-01T08:25:04;97738.14;;;13.49;100.00
70971;BME280;58632;51.718;19.446;2023-04-01T08:27:39;97739.07;;;13.43;100.00
70971;BME280;58632;51.718;19.446;2023-04-01T08:32:48;97733.18;;;13.50;100.00
70971;BME280;58632;51.718;19.446;2023-04-01T08:37:44;97741.98;;;12.95;100.00
70971;BME280;58632;51.718;19.446;2023-04-01T08:42:43;97742.70;;;12.60;100.00
70971;BME280;58632;51.718;19.446;2023-04-01T08:47:50;97742.95;;;12.61;100.00
70971;BME280;58632;51.718;19.446;2023-04-01T09:00:32;97743.70;;;13.18;100.00
70971;BME280;58632;51.718;19.446;2023-04-01T09:03:02;97744.08;;;13.35;100.00
70971;BME280;58632;51.718;19.446;2023-04-01T09:08:28;97742.94;;;13.51;100.00
70971;BME280;58632;51.718;19.446;2023-04-01T09:11:08;97739.64;;;13.57;100.00
70971;BME280;58632;51.718;19.446;2023-04-01T09:13:59;97739.30;;;13.50;100.00
70971;BME280;58632;51.718;19.446;2023-04-01T09:19:18;97740.86;;;13.39;100.00
70971;BME280;58632;51.718;19.446;2023-04-01T09:24:34;97743.31;;;13.19;100.00
70971;BME280;58632;51.718;19.446;2023-04-01T09:27:10;97741.89;;;13.11;100.00
70971;BME280;58632;51.718;19.446;2023-04-01T09:37:19;97740.68;;;13.27;100.00
70971;BME280;58632;51.718;19.446;2023-04-01T09:40:01;97743.58;;;13.24;100.00
70971;BME280;58632;51.718;19.446;2023-04-01T09:42:43;97747.60;;;13.10;100.00
70971;BME280;58632;51.718;19.446;2023-04-01T09:55:46;97743.95;;;13.54;100.00
70971;BME280;58632;51.718;19.446;2023-04-01T10:03:24;97750.02;;;13.87;100.00
70971;BME280;58632;51.718;19.446;2023-04-01T10:14:07;97760.08;;;14.08;100.00
70971;BME280;58632;51.718;19.446;2023-04-01T10:35:08;97755.05;;;16.04;100.00
70971;BME280;58632;51.718;19.446;2023-04-01T10:45:44;97761.52;;;15.58;100.00
70971;BME280;58632;51.718;19.446;2023-04-01T10:50:56;97761.67;;;14.52;100.00
70971;BME280;58632;51.718;19.446;2023-04-01T10:58:35;97767.13;;;13.52;100.00
70971;BME280;58632;51.718;19.446;2023-04-01T11:27:12;97798.22;;;13.22;100.00
70971;BME280;58632;51.718;19.446;2023-04-01T11:55:04;97805.83;;;12.84;100.00
70971;BME280;58632;51.718;19.446;2023-04-01T12:06:02;97810.25;;;13.87;100.00
70971;BME280;58632;51.718;19.446;2023-04-01T12:18:09;97814.56;;;14.37;100.00
70971;BME280;58632;51.718;19.446;2023-04-01T12:20:43;97810.55;;;14.11;100.00
70971;BME280;58632;51.718;19.446;2023-04-01T12:30:50;97824.45;;;12.92;100.00
70971;BME280;58632;51.718;19.446;2023-04-01T12:36:17;97828.96;;;12.43;100.00
70971;BME280;58632;51.718;19.446;2023-04-01T12:54:34;97844.98;;;12.48;100.00
70971;BME280;58632;51.718;19.446;2023-04-01T13:15:26;97866.73;;;13.27;100.00
70971;BME280;58632;51.718;19.446;2023-04-01T13:23:08;97870.86;;;12.95;100.00
70971;BME280;58632;51.718;19.446;2023-04-01T13:28:06;97882.33;;;12.60;100.00
70971;BME280;58632;51.718;19.446;2023-04-01T13:30:39;97883.39;;;12.43;100.00
70971;BME280;58632;51.718;19.446;2023-04-01T13:35:41;97886.35;;;12.22;100.00
70971;BME280;58632;51.718;19.446;2023-04-01T13:38:35;97893.77;;;12.19;100.00
70971;BME280;58632;51.718;19.446;2023-04-01T13:43:49;97903.63;;;11.92;100.00
70971;BME280;58632;51.718;19.446;2023-04-01T13:49:00;97904.83;;;11.66;100.00
70971;BME280;58632;51.718;19.446;2023-04-01T13:56:30;97912.11;;;11.40;100.00
70971;BME280;58632;51.718;19.446;2023-04-01T14:01:44;97920.09;;;11.40;100.00
70971;BME280;58632;51.718;19.446;2023-04-01T14:07:00;97922.18;;;11.51;100.00
70971;BME280;58632;51.718;19.446;2023-04-01T14:09:51;97926.33;;;11.63;100.00
70971;BME280;58632;51.718;19.446;2023-04-01T14:15:23;97932.25;;;11.61;100.00
70971;BME280;58632;51.718;19.446;2023-04-01T14:28:16;97941.77;;;11.57;100.00
70971;BME280;58632;51.718;19.446;2023-04-01T14:46:06;97967.39;;;11.47;100.00
70971;BME280;58632;51.718;19.446;2023-04-01T14:48:57;97970.02;;;11.42;100.00
70971;BME280;58632;51.718;19.446;2023-04-01T14:51:34;97973.90;;;11.30;100.00
70971;BME280;58632;51.718;19.446;2023-04-01T14:54:12;97980.70;;;11.12;100.00
70971;BME280;58632;51.718;19.446;2023-04-01T14:57:05;97983.70;;;10.93;100.00
70971;BME280;58632;51.718;19.446;2023-04-01T14:59:34;97990.81;;;10.77;100.00
70971;BME280;58632;51.718;19.446;2023-04-01T15:04:50;98002.08;;;10.58;100.00
70971;BME280;58632;51.718;19.446;2023-04-01T15:07:43;98003.42;;;10.46;100.00
70971;BME280;58632;51.718;19.446;2023-04-01T15:10:24;98009.09;;;10.34;100.00
70971;BME280;58632;51.718;19.446;2023-04-01T15:12:59;98013.33;;;10.24;100.00
70971;BME280;58632;51.718;19.446;2023-04-01T15:18:09;98019.28;;;10.00;100.00
70971;BME280;58632;51.718;19.446;2023-04-01T15:28:41;98039.73;;;9.68;100.00
70971;BME280;58632;51.718;19.446;2023-04-01T15:34:11;98050.19;;;9.53;100.00
70971;BME280;58632;51.718;19.446;2023-04-01T15:36:47;98049.94;;;9.46;100.00
70971;BME280;58632;51.718;19.446;2023-04-01T15:39:19;98056.01;;;9.38;100.00
70971;BME280;58632;51.718;19.446;2023-04-01T15:47:00;98065.23;;;9.25;100.00
70971;BME280;58632;51.718;19.446;2023-04-01T15:49:42;98070.15;;;9.18;100.00
70971;BME280;58632;51.718;19.446;2023-04-01T15:59:51;98078.23;;;8.94;100.00
70971;BME280;58632;51.718;19.446;2023-04-01T16:05:07;98089.48;;;8.86;100.00
70971;BME280;58632;51.718;19.446;2023-04-01T16:15:40;98111.09;;;8.71;100.00
70971;BME280;58632;51.718;19.446;2023-04-01T16:18:14;98114.80;;;8.69;100.00
70971;BME280;58632;51.718;19.446;2023-04-01T16:36:13;98141.11;;;8.56;100.00
70971;BME280;58632;51.718;19.446;2023-04-01T16:41:32;98144.56;;;8.51;100.00
70971;BME280;58632;51.718;19.446;2023-04-01T16:44:08;98150.73;;;8.49;100.00
70971;BME280;58632;51.718;19.446;2023-04-01T16:46:50;98152.94;;;8.46;100.00
70971;BME280;58632;51.718;19.446;2023-04-01T16:49:21;98154.52;;;8.45;100.00
70971;BME280;58632;51.718;19.446;2023-04-01T16:59:36;98180.63;;;8.45;100.00
70971;BME280;58632;51.718;19.446;2023-04-01T17:02:10;98183.79;;;8.43;100.00
70971;BME280;58632;51.718;19.446;2023-04-01T17:04:47;98188.60;;;8.38;100.00
70971;BME280;58632;51.718;19.446;2023-04-01T17:09:44;98198.85;;;8.37;100.00
70971;BME280;58632;51.718;19.446;2023-04-01T17:12:23;98197.39;;;8.32;100.00
70971;BME280;58632;51.718;19.446;2023-04-01T17:15:15;98208.11;;;8.28;100.00
70971;BME280;58632;51.718;19.446;2023-04-01T17:25:39;98218.98;;;8.24;100.00
70971;BME280;58632;51.718;19.446;2023-04-01T17:30:56;98223.38;;;8.16;100.00
70971;BME280;58632;51.718;19.446;2023-04-01T17:41:12;98242.45;;;8.15;100.00
70971;BME280;58632;51.718;19.446;2023-04-01T17:43:51;98247.27;;;8.14;100.00
70971;BME280;58632;51.718;19.446;2023-04-01T17:49:00;98254.08;;;8.13;100.00
70971;BME280;58632;51.718;19.446;2023-04-01T17:53:57;98263.48;;;8.09;100.00
70971;BME280;58632;51.718;19.446;2023-04-01T17:56:37;98267.45;;;8.12;100.00
70971;BME280;58632;51.718;19.446;2023-04-01T17:59:11;98273.31;;;8.13;100.00
70971;BME280;58632;51.718;19.446;2023-04-01T18:04:25;98284.08;;;8.09;100.00
70971;BME280;58632;51.718;19.446;2023-04-01T18:07:06;98287.11;;;8.05;100.00
70971;BME280;58632;51.718;19.446;2023-04-01T18:12:14;98291.65;;;7.94;100.00
70971;BME280;58632;51.718;19.446;2023-04-01T18:17:23;98298.25;;;7.91;100.00
70971;BME280;58632;51.718;19.446;2023-04-01T18:25:21;98310.11;;;7.92;100.00
70971;BME280;58632;51.718;19.446;2023-04-01T18:28:34;98314.16;;;7.89;100.00
70971;BME280;58632;51.718;19.446;2023-04-01T18:30:38;98316.40;;;7.89;100.00
70971;BME280;58632;51.718;19.446;2023-04-01T18:33:08;98321.74;;;7.90;100.00
70971;BME280;58632;51.718;19.446;2023-04-01T18:35:50;98323.63;;;7.88;100.00
70971;BME280;58632;51.718;19.446;2023-04-01T18:38:31;98328.05;;;7.88;100.00
70971;BME280;58632;51.718;19.446;2023-04-01T18:43:31;98337.33;;;7.89;100.00
70971;BME280;58632;51.718;19.446;2023-04-01T18:51:23;98354.49;;;7.80;100.00
70971;BME280;58632;51.718;19.446;2023-04-01T18:56:38;98361.04;;;7.80;100.00
70971;BME280;58632;51.718;19.446;2023-04-01T19:04:31;98371.74;;;7.74;100.00
70971;BME280;58632;51.718;19.446;2023-04-01T19:07:00;98370.80;;;7.76;100.00
70971;BME280;58632;51.718;19.446;2023-04-01T19:09:32;98374.53;;;7.75;100.00
70971;BME280;58632;51.718;19.446;2023-04-01T19:12:14;98377.15;;;7.73;100.00
70971;BME280;58632;51.718;19.446;2023-04-01T19:14:48;98376.94;;;7.69;100.00
70971;BME280;58632;51.718;19.446;2023-04-01T19:17:23;98378.83;;;7.65;100.00
70971;BME280;58632;51.718;19.446;2023-04-01T19:19:54;98382.70;;;7.64;100.00
70971;BME280;58632;51.718;19.446;2023-04-01T19:22:30;98388.64;;;7.65;100.00
70971;BME280;58632;51.718;19.446;2023-04-01T19:27:46;98397.89;;;7.73;100.00
70971;BME280;58632;51.718;19.446;2023-04-01T19:30:18;98401.50;;;7.77;100.00
70971;BME280;58632;51.718;19.446;2023-04-01T19:32:49;98402.95;;;7.74;100.00
70971;BME280;58632;51.718;19.446;2023-04-01T19:35:41;98404.94;;;7.70;100.00
70971;BME280;58632;51.718;19.446;2023-04-01T19:40:55;98411.56;;;7.68;100.00
70971;BME280;58632;51.718;19.446;2023-04-01T19:43:37;98416.63;;;7.67;100.00
70971;BME280;58632;51.718;19.446;2023-04-01T19:46:51;98423.84;;;7.65;100.00
70971;BME280;58632;51.718;19.446;2023-04-01T19:54:03;98428.29;;;7.57;100.00
70971;BME280;58632;51.718;19.446;2023-04-01T19:57:00;98433.06;;;7.58;100.00
70971;BME280;58632;51.718;19.446;2023-04-01T19:59:29;98435.28;;;7.58;100.00
70971;BME280;58632;51.718;19.446;2023-04-01T20:04:48;98436.19;;;7.60;100.00
70971;BME280;58632;51.718;19.446;2023-04-01T20:07:43;98440.91;;;7.61;100.00
70971;BME280;58632;51.718;19.446;2023-04-01T20:13:04;98443.25;;;7.62;100.00
70971;BME280;58632;51.718;19.446;2023-04-01T20:15:33;98445.34;;;7.64;100.00
70971;BME280;58632;51.718;19.446;2023-04-01T20:18:01;98447.49;;;7.63;100.00
70971;BME280;58632;51.718;19.446;2023-04-01T20:20:29;98450.36;;;7.58;100.00
70971;BME280;58632;51.718;19.446;2023-04-01T20:23:02;98453.21;;;7.55;100.00
70971;BME280;58632;51.718;19.446;2023-04-01T20:25:32;98455.29;;;7.52;100.00
70971;BME280;58632;51.718;19.446;2023-04-01T20:39:03;98463.37;;;7.37;100.00
70971;BME280;58632;51.718;19.446;2023-04-01T20:44:34;98469.30;;;7.33;100.00
70971;BME280;58632;51.718;19.446;2023-04-01T20:47:15;98476.51;;;7.37;100.00
70971;BME280;58632;51.718;19.446;2023-04-01T20:49:54;98477.95;;;7.36;100.00
70971;BME280;58632;51.718;19.446;2023-04-01T20:52:25;98480.92;;;7.32;100.00
70971;BME280;58632;51.718;19.446;2023-04-01T21:05:19;98489.80;;;7.22;100.00
70971;BME280;58632;51.718;19.446;2023-04-01T21:07:58;98490.16;;;7.19;100.00
70971;BME280;58632;51.718;19.446;2023-04-01T21:10:33;98492.20;;;7.19;100.00
70971;BME280;58632;51.718;19.446;2023-04-01T21:13:15;98494.46;;;7.15;100.00
70971;BME280;58632;51.718;19.446;2023-04-01T21:18:24;98507.27;;;7.01;100.00
70971;BME280;58632;51.718;19.446;2023-04-01T21:21:01;98509.31;;;6.97;100.00
70971;BME280;58632;51.718;19.446;2023-04-01T21:34:10;98522.60;;;6.89;100.00
70971;BME280;58632;51.718;19.446;2023-04-01T21:36:52;98524.38;;;6.85;100.00